createdAt,value
2019-01-29T00:02:10.936Z,9.87
2019-01-29T00:04:39.129Z,12.13
2019-01-29T00:07:07.335Z,15.30
2019-01-29T00:09:35.519Z,12.87
2019-01-29T00:12:03.779Z,11.77
2019-01-29T00:14:31.975Z,24.63
2019-01-29T00:17:00.166Z,23.03
2019-01-29T00:19:28.351Z,17.90
2019-01-29T00:21:56.548Z,9.80
2019-01-29T00:24:24.739Z,19.63
2019-01-29T00:26:53.500Z,27.70
2019-01-29T00:29:21.707Z,23.77
2019-01-29T00:31:49.891Z,15.57
2019-01-29T00:34:18.091Z,13.80
2019-01-29T00:36:46.276Z,13.10
2019-01-29T00:39:14.467Z,16.50
2019-01-29T00:41:42.948Z,19.87
2019-01-29T00:44:11.147Z,24.00
2019-01-29T00:46:39.330Z,18.40
2019-01-29T00:49:07.535Z,20.73
2019-01-29T00:51:35.728Z,10.87
2019-01-29T01:01:01.743Z,14.77
2019-01-29T01:03:29.928Z,22.03
2019-01-29T01:05:58.132Z,10.57
2019-01-29T01:08:26.314Z,13.03
2019-01-29T01:10:54.515Z,10.03
2019-01-29T01:13:22.708Z,19.90
2019-01-29T01:15:50.904Z,9.20
2019-01-29T01:18:19.087Z,12.43
2019-01-29T01:20:47.273Z,6.80
2019-01-29T01:23:15.472Z,19.73
2019-01-29T01:25:44.231Z,20.03
2019-01-29T01:28:12.423Z,6.67
2019-01-29T01:30:40.603Z,19.40
2019-01-29T01:33:08.807Z,24.60
2019-01-29T01:35:36.987Z,8.60
2019-01-29T01:38:05.187Z,17.50
2019-01-29T01:40:33.370Z,14.10
2019-01-29T01:43:01.653Z,27.77
2019-01-29T01:45:29.843Z,24.43
2019-01-29T01:47:58.035Z,27.93
2019-01-29T01:50:26.239Z,30.87
2019-01-29T01:52:59.279Z,27.57
2019-01-29T01:55:24.371Z,18.07
2019-01-29T01:57:52.575Z,23.60
2019-01-29T02:00:21.907Z,21.87
2019-01-29T02:02:50.113Z,36.33
2019-01-29T02:05:18.384Z,28.77
2019-01-29T02:07:46.589Z,35.10
2019-01-29T02:10:20.127Z,37.13
2019-01-29T02:12:48.343Z,41.93
2019-01-29T02:15:16.535Z,37.57
2019-01-29T02:17:44.743Z,39.67
2019-01-29T02:20:14.979Z,38.63
2019-01-29T02:22:43.171Z,20.47
2019-01-29T02:25:11.371Z,40.37
2019-01-29T02:27:39.559Z,32.00
2019-01-29T02:30:11.399Z,22.03
2019-01-29T02:32:39.603Z,36.73
2019-01-29T02:35:07.791Z,27.17
2019-01-29T02:37:35.986Z,30.73
2019-01-29T02:40:07.436Z,35.37
2019-01-29T02:42:35.623Z,36.23
2019-01-29T02:45:05.924Z,24.00
2019-01-29T02:47:34.111Z,33.90
2019-01-29T02:50:02.354Z,32.00
2019-01-29T02:52:30.528Z,34.63
2019-01-29T02:54:58.719Z,45.93
2019-01-29T02:57:26.923Z,41.43
2019-01-29T02:59:55.119Z,17.37
2019-01-29T03:02:23.315Z,17.70
2019-01-29T03:04:53.394Z,20.90
2019-01-29T03:07:21.432Z,16.40
2019-01-29T03:09:49.743Z,15.93
2019-01-29T03:12:17.951Z,39.87
2019-01-29T03:14:46.144Z,29.37
2019-01-29T03:17:14.335Z,22.17
2019-01-29T03:19:42.536Z,25.37
2019-01-29T03:22:10.727Z,33.13
2019-01-29T03:24:38.927Z,35.20
2019-01-29T03:27:07.121Z,34.03
2019-01-29T03:29:35.327Z,36.17
2019-01-29T03:32:03.777Z,8.57
2019-01-29T03:34:31.966Z,35.10
2019-01-29T03:37:00.171Z,24.13
2019-01-29T03:39:28.644Z,15.13
2019-01-29T03:41:56.840Z,21.10
2019-01-29T03:44:25.044Z,26.10
2019-01-29T03:46:53.236Z,28.33
2019-01-29T03:49:21.442Z,42.10
2019-01-29T03:51:49.627Z,24.43
2019-01-29T03:54:17.819Z,21.97
2019-01-29T03:56:46.019Z,29.83
2019-01-29T03:59:14.222Z,32.57
2019-01-29T04:01:42.409Z,26.93
2019-01-29T04:04:10.619Z,20.40
2019-01-29T04:06:38.810Z,20.33
2019-01-29T04:09:08.238Z,20.27
2019-01-29T04:11:36.431Z,15.87
2019-01-29T04:14:04.620Z,22.77
2019-01-29T04:16:32.813Z,30.00
2019-01-29T04:19:01.266Z,21.63
2019-01-29T04:21:29.450Z,31.53
2019-01-29T04:23:57.644Z,26.80
2019-01-29T04:26:25.844Z,26.70
2019-01-29T04:28:54.035Z,29.20
2019-01-29T04:31:22.239Z,39.77
2019-01-29T04:33:50.445Z,36.90
2019-01-29T04:36:18.647Z,25.90
2019-01-29T04:38:46.835Z,33.43
2019-01-29T04:41:15.038Z,43.40
2019-01-29T04:43:43.232Z,32.20
2019-01-29T04:46:11.416Z,26.20
2019-01-29T04:48:39.615Z,20.93
2019-01-29T04:51:07.819Z,16.77
2019-01-29T04:53:36.016Z,41.13
2019-01-29T04:56:04.203Z,46.13
2019-01-29T04:58:32.402Z,35.20
2019-01-29T05:01:00.604Z,30.63
2019-01-29T05:03:28.791Z,29.63
2019-01-29T05:05:57.560Z,32.10
2019-01-29T05:08:25.763Z,27.07
2019-01-29T05:10:53.945Z,37.27
2019-01-29T05:13:22.164Z,41.43
2019-01-29T05:15:50.344Z,42.43
2019-01-29T05:18:18.539Z,24.33
2019-01-29T05:20:46.812Z,43.40
2019-01-29T05:23:15.003Z,35.57
2019-01-29T05:25:43.217Z,30.07
2019-01-29T05:28:11.399Z,38.93
2019-01-29T05:30:39.587Z,28.83
2019-01-29T05:33:07.793Z,31.63
2019-01-29T05:35:35.991Z,30.27
2019-01-29T05:38:04.309Z,25.93
2019-01-29T05:40:32.660Z,46.67
2019-01-29T05:43:00.843Z,34.73
2019-01-29T05:45:29.047Z,45.40
2019-01-29T05:47:57.240Z,28.27
2019-01-29T05:50:25.443Z,41.53
2019-01-29T05:52:53.642Z,42.70
2019-01-29T05:55:21.840Z,10.10
2019-01-29T05:57:50.032Z,39.37
2019-01-29T06:00:29.711Z,41.20
2019-01-29T06:02:57.899Z,27.50
2019-01-29T06:05:26.090Z,33.03
2019-01-29T06:07:54.287Z,37.73
2019-01-29T06:10:22.479Z,36.27
2019-01-29T06:12:50.668Z,34.80
2019-01-29T06:15:20.811Z,24.47
2019-01-29T06:17:49.012Z,26.53
2019-01-29T06:20:21.996Z,27.73
2019-01-29T06:22:50.496Z,26.63
2019-01-29T06:25:18.699Z,33.97
2019-01-29T06:27:46.885Z,35.80
2019-01-29T06:30:17.119Z,30.30
2019-01-29T06:32:45.315Z,34.10
2019-01-29T06:35:15.450Z,33.57
2019-01-29T06:37:43.641Z,42.07
2019-01-29T06:40:17.236Z,45.80
2019-01-29T06:42:45.426Z,32.67
2019-01-29T06:45:17.995Z,32.53
2019-01-29T06:47:46.211Z,28.63
2019-01-29T06:50:16.639Z,38.40
2019-01-29T06:52:44.826Z,37.93
2019-01-29T06:55:16.299Z,34.90
2019-01-29T06:57:44.492Z,30.77
2019-01-29T07:00:20.167Z,25.70
2019-01-29T07:02:48.526Z,33.27
2019-01-29T07:05:16.724Z,33.37
2019-01-29T07:07:44.916Z,38.70
2019-01-29T07:10:15.648Z,38.90
2019-01-29T07:12:43.848Z,28.60
2019-01-29T07:15:16.419Z,38.07
2019-01-29T07:17:46.392Z,37.23
2019-01-29T07:20:14.584Z,39.77
2019-01-29T07:22:42.784Z,30.20
2019-01-29T07:25:12.595Z,21.87
2019-01-29T07:27:40.799Z,29.50
2019-01-29T07:30:12.396Z,41.27
2019-01-29T07:32:40.596Z,32.77
2019-01-29T07:35:09.155Z,32.97
2019-01-29T07:37:37.351Z,35.07
2019-01-29T07:40:08.221Z,30.53
2019-01-29T07:42:36.479Z,34.60
2019-01-29T07:45:08.015Z,36.67
2019-01-29T07:47:36.212Z,36.37
2019-01-29T07:50:06.551Z,32.50
2019-01-29T07:52:34.743Z,22.70
2019-01-29T07:55:03.019Z,31.40
2019-01-29T07:57:31.211Z,46.03
2019-01-29T07:59:59.411Z,40.90
2019-01-29T08:02:27.611Z,29.33
2019-01-29T08:04:55.799Z,36.50
2019-01-29T08:07:23.986Z,29.27
2019-01-29T08:09:52.191Z,33.87
2019-01-29T08:12:20.391Z,35.37
2019-01-29T08:14:48.578Z,41.17
2019-01-29T08:17:16.779Z,33.97
2019-01-29T08:19:44.975Z,18.63
2019-01-29T08:22:13.167Z,29.40
2019-01-29T08:24:41.355Z,25.33
2019-01-29T08:27:09.555Z,26.97
2019-01-29T08:29:37.760Z,16.23
2019-01-29T08:32:05.952Z,30.50
2019-01-29T08:34:34.143Z,24.40
2019-01-29T08:37:02.347Z,20.80
2019-01-29T08:39:30.535Z,22.93
2019-01-29T08:41:58.729Z,22.20
2019-01-29T08:44:26.931Z,31.70
2019-01-29T08:46:55.124Z,24.03
2019-01-29T08:49:23.317Z,22.00
2019-01-29T08:51:51.516Z,18.40
2019-01-29T08:54:19.710Z,11.27
2019-01-29T08:56:47.923Z,18.67
2019-01-29T08:59:16.086Z,22.17
2019-01-29T09:01:44.286Z,24.43
2019-01-29T09:04:12.482Z,13.33
2019-01-29T09:06:40.671Z,26.10
2019-01-29T09:09:08.873Z,19.10
2019-01-29T09:11:37.051Z,18.87
2019-01-29T09:14:05.251Z,24.00
2019-01-29T09:16:33.439Z,22.30
2019-01-29T09:19:01.636Z,20.17
2019-01-29T09:21:29.823Z,18.37
2019-01-29T09:23:58.019Z,15.43
2019-01-29T09:26:26.211Z,18.60
2019-01-29T09:28:54.407Z,20.03
2019-01-29T09:31:22.604Z,20.93
2019-01-29T09:33:50.787Z,16.53
2019-01-29T09:36:18.990Z,18.63
2019-01-29T09:38:47.175Z,16.03
2019-01-29T09:41:15.404Z,13.97
2019-01-29T09:43:44.251Z,19.13
2019-01-29T09:46:12.445Z,16.60
2019-01-29T09:48:40.627Z,17.13
2019-01-29T09:51:08.823Z,14.83
2019-01-29T09:53:37.014Z,13.03
2019-01-29T09:56:05.216Z,12.50
2019-01-29T09:58:33.419Z,11.53
2019-01-29T10:01:01.607Z,11.50
2019-01-29T10:03:29.811Z,14.83
2019-01-29T10:05:58.015Z,12.50
2019-01-29T10:08:26.210Z,16.37
2019-01-29T10:10:54.407Z,13.83
2019-01-29T10:13:22.611Z,10.67
2019-01-29T10:15:51.694Z,10.47
2019-01-29T10:18:19.889Z,11.57
2019-01-29T10:20:48.079Z,35.00
2019-01-29T10:23:16.271Z,10.10
2019-01-29T10:25:45.031Z,15.87
2019-01-29T10:28:13.228Z,13.37
2019-01-29T10:30:41.420Z,13.23
2019-01-29T10:33:09.611Z,9.60
2019-01-29T10:35:37.820Z,13.50
2019-01-29T10:38:06.003Z,14.27
2019-01-29T10:40:34.247Z,10.57
2019-01-29T10:43:02.431Z,10.63
2019-01-29T10:45:30.618Z,8.53
2019-01-29T10:47:58.821Z,9.80
2019-01-29T10:50:29.066Z,8.67
2019-01-29T10:52:57.255Z,12.23
2019-01-29T10:55:25.459Z,11.80
2019-01-29T10:57:53.653Z,8.80
2019-01-29T11:00:25.195Z,9.77
2019-01-29T11:02:53.407Z,12.33
2019-01-29T11:05:21.599Z,6.70
2019-01-29T11:07:49.793Z,6.13
2019-01-29T11:10:19.324Z,8.23
2019-01-29T11:12:47.518Z,9.00
2019-01-29T11:15:24.979Z,4.47
2019-01-29T11:17:53.180Z,5.90
2019-01-29T11:20:21.363Z,4.67
2019-01-29T11:22:49.567Z,12.20
2019-01-29T11:25:28.833Z,7.23
2019-01-29T11:27:57.031Z,3.90
2019-01-29T11:30:27.446Z,6.33
2019-01-29T11:32:55.631Z,5.90
2019-01-29T11:35:23.811Z,6.73
2019-01-29T11:37:52.007Z,5.43
2019-01-29T11:40:26.203Z,6.33
2019-01-29T11:42:54.407Z,14.27
2019-01-29T11:45:40.780Z,4.70
2019-01-29T11:48:08.980Z,4.73
2019-01-29T11:50:37.165Z,6.93
2019-01-29T11:53:05.363Z,4.77
2019-01-29T11:55:33.559Z,5.93
2019-01-29T11:58:01.743Z,8.60
2019-01-29T12:00:36.235Z,8.90
2019-01-29T12:03:04.676Z,12.27
2019-01-29T12:05:32.864Z,8.20
2019-01-29T12:08:01.061Z,1.87
2019-01-29T12:10:29.243Z,9.67
2019-01-29T12:12:57.444Z,6.60
2019-01-29T12:15:25.647Z,12.10
2019-01-29T12:17:53.844Z,2.70
2019-01-29T12:20:22.028Z,4.33
2019-01-29T12:22:50.227Z,6.77
2019-01-29T12:25:18.418Z,9.47
2019-01-29T12:27:46.606Z,11.77
2019-01-29T12:30:22.531Z,5.97
2019-01-29T12:32:51.356Z,8.40
2019-01-29T12:35:20.112Z,5.40
2019-01-29T12:37:48.311Z,5.67
2019-01-29T12:40:16.494Z,8.30
2019-01-29T12:42:44.683Z,6.90
2019-01-29T12:45:17.360Z,2.83
2019-01-29T12:47:45.631Z,12.90
2019-01-29T12:50:16.823Z,11.30
2019-01-29T12:52:46.668Z,7.13
2019-01-29T12:55:14.851Z,6.60
2019-01-29T12:57:43.035Z,6.57
2019-01-29T13:00:17.188Z,13.83
2019-01-29T13:02:45.371Z,13.77
2019-01-29T13:05:14.040Z,5.17
2019-01-29T13:07:42.368Z,3.80
2019-01-29T13:10:13.819Z,2.70
2019-01-29T13:12:42.003Z,5.20
2019-01-29T13:15:13.595Z,10.60
2019-01-29T13:17:42.036Z,5.30
2019-01-29T13:20:11.295Z,4.93
2019-01-29T13:22:39.487Z,12.70
2019-01-29T13:25:10.107Z,9.33
2019-01-29T13:27:38.322Z,8.37
2019-01-29T13:30:09.754Z,7.37
2019-01-29T13:32:37.951Z,6.57
2019-01-29T13:35:08.573Z,10.97
2019-01-29T13:37:37.048Z,13.33
2019-01-29T13:40:08.741Z,8.60
2019-01-29T13:42:36.928Z,8.60
2019-01-29T13:45:08.370Z,10.87
2019-01-29T13:47:36.567Z,16.03
2019-01-29T13:50:11.252Z,13.67
2019-01-29T13:52:39.436Z,12.73
2019-01-29T13:55:11.076Z,9.23
2019-01-29T13:57:39.261Z,8.83
2019-01-29T14:00:12.374Z,9.17
2019-01-29T14:02:40.683Z,9.97
2019-01-29T14:05:09.041Z,9.17
2019-01-29T14:07:37.235Z,5.23
2019-01-29T14:10:08.819Z,8.50
2019-01-29T14:12:37.015Z,8.43
2019-01-29T14:15:08.039Z,8.77
2019-01-29T14:17:36.224Z,4.33
2019-01-29T14:20:08.847Z,3.20
2019-01-29T14:22:37.184Z,12.27
2019-01-29T14:25:07.964Z,6.47
2019-01-29T14:27:36.147Z,5.27
2019-01-29T14:30:07.594Z,3.37
2019-01-29T14:32:36.732Z,8.17
2019-01-29T14:35:05.319Z,3.03
2019-01-29T14:37:53.163Z,2.93
2019-01-29T14:40:21.347Z,2.83
2019-01-29T14:42:49.547Z,2.33
2019-01-29T14:45:19.380Z,4.20
2019-01-29T14:47:47.576Z,5.03
2019-01-29T14:50:16.298Z,2.70
2019-01-29T14:52:44.489Z,1.93
2019-01-29T14:55:12.743Z,5.43
2019-01-29T14:57:41.149Z,2.00
2019-01-29T15:00:30.756Z,4.40
2019-01-29T15:02:58.955Z,5.23
2019-01-29T15:05:27.131Z,8.13
2019-01-29T15:07:55.395Z,4.60
2019-01-29T15:10:25.504Z,5.30
2019-01-29T15:12:53.776Z,6.07
2019-01-29T15:15:27.315Z,3.27
2019-01-29T15:18:02.919Z,2.20
2019-01-29T15:20:31.107Z,4.47
2019-01-29T15:22:59.291Z,3.50
2019-01-29T15:25:28.055Z,2.93
2019-01-29T15:27:56.239Z,3.73
2019-01-29T15:30:28.583Z,6.13
2019-01-29T15:32:56.771Z,1.17
2019-01-29T15:35:24.963Z,4.00
2019-01-29T15:37:54.623Z,3.63
2019-01-29T15:40:23.259Z,2.20
2019-01-29T15:42:52.183Z,3.20
2019-01-29T15:45:25.191Z,7.37
2019-01-29T15:47:53.391Z,1.67
2019-01-29T15:50:23.976Z,5.80
2019-01-29T15:52:52.167Z,7.60
2019-01-29T15:55:20.449Z,1.50
2019-01-29T15:57:48.975Z,3.53
2019-01-29T16:00:28.934Z,4.07
2019-01-29T16:02:57.135Z,3.17
2019-01-29T16:05:53.531Z,7.80
2019-01-29T16:08:21.727Z,7.33
2019-01-29T16:10:49.925Z,16.20
2019-01-29T16:13:18.120Z,13.50
2019-01-29T16:15:46.307Z,11.27
2019-01-29T16:18:14.506Z,10.30
2019-01-29T16:20:42.697Z,15.57
2019-01-29T16:23:10.902Z,17.60
2019-01-29T16:25:39.088Z,14.77
2019-01-29T16:28:07.292Z,11.93
2019-01-29T16:30:41.405Z,11.77
2019-01-29T16:33:09.598Z,13.67
2019-01-29T16:35:40.691Z,15.67
2019-01-29T16:38:09.427Z,10.63
2019-01-29T16:40:39.351Z,14.57
2019-01-29T16:43:07.556Z,14.00
2019-01-29T16:45:36.241Z,11.80
2019-01-29T16:48:06.185Z,11.93
2019-01-29T16:50:34.397Z,9.53
2019-01-29T16:53:02.571Z,9.17
2019-01-29T16:55:31.785Z,14.43
2019-01-29T16:58:00.150Z,10.83
2019-01-29T17:00:30.575Z,9.80
2019-01-29T17:02:58.772Z,13.87
2019-01-29T17:05:28.200Z,6.43
2019-01-29T17:07:56.665Z,7.60
2019-01-29T17:10:31.970Z,10.60
2019-01-29T17:13:00.155Z,8.90
2019-01-29T17:15:33.426Z,7.77
2019-01-29T17:18:01.888Z,7.30
2019-01-29T17:20:44.348Z,11.20
2019-01-29T17:23:12.794Z,9.27
2019-01-29T17:25:41.030Z,10.73
2019-01-29T17:28:09.264Z,10.20
2019-01-29T17:30:42.473Z,11.67
2019-01-29T17:33:11.465Z,7.63
2019-01-29T17:35:40.300Z,7.70
2019-01-29T17:38:08.479Z,7.83
2019-01-29T17:40:36.668Z,6.80
2019-01-29T17:43:05.404Z,8.73
2019-01-29T17:45:39.491Z,8.87
2019-01-29T17:48:07.692Z,6.47
2019-01-29T17:50:38.671Z,4.77
2019-01-29T17:53:06.875Z,4.70
2019-01-29T17:55:36.501Z,7.13
2019-01-29T17:58:05.331Z,8.33
2019-01-29T18:00:35.201Z,8.47
2019-01-29T18:03:03.395Z,8.60
2019-01-29T18:05:31.580Z,7.50
2019-01-29T18:07:59.771Z,17.60
2019-01-29T18:10:27.959Z,13.87
2019-01-29T18:12:56.159Z,8.50
2019-01-29T18:15:31.391Z,12.87
2019-01-29T18:17:59.593Z,8.63
2019-01-29T18:20:27.782Z,13.73
2019-01-29T18:22:55.976Z,7.57
2019-01-29T18:25:24.753Z,13.17
2019-01-29T18:28:00.877Z,10.20
2019-01-29T18:30:28.592Z,9.57
2019-01-29T18:32:56.795Z,14.10
2019-01-29T18:35:24.995Z,9.17
2019-01-29T18:37:53.237Z,10.87
2019-01-29T18:40:27.388Z,12.33
2019-01-29T18:42:55.588Z,14.10
2019-01-29T18:45:23.771Z,11.00
2019-01-29T18:47:51.969Z,14.23
2019-01-29T18:50:20.987Z,14.53
2019-01-29T18:52:49.175Z,12.27
2019-01-29T18:55:17.364Z,13.60
2019-01-29T18:57:45.562Z,10.37
2019-01-29T19:00:19.395Z,16.93
2019-01-29T19:02:47.576Z,10.50
2019-01-29T19:05:16.513Z,13.87
2019-01-29T19:07:44.990Z,19.17
2019-01-29T19:10:15.812Z,15.47
2019-01-29T19:12:44.576Z,18.83
2019-01-29T19:15:17.363Z,15.53
2019-01-29T19:17:46.119Z,18.27
2019-01-29T19:20:16.862Z,15.63
2019-01-29T19:22:45.056Z,22.47
2019-01-29T19:25:14.983Z,15.83
2019-01-29T19:27:43.179Z,21.27
2019-01-29T19:30:22.796Z,26.17
2019-01-29T19:32:50.992Z,17.17
2019-01-29T19:35:19.246Z,17.47
2019-01-29T19:37:47.454Z,19.50
2019-01-29T19:40:17.283Z,17.50
2019-01-29T19:42:45.489Z,17.27
2019-01-29T19:45:19.338Z,25.80
2019-01-29T19:47:47.544Z,19.10
2019-01-29T19:50:18.731Z,16.00
2019-01-29T19:52:46.919Z,19.93
2019-01-29T19:55:15.119Z,21.33
2019-01-29T19:57:43.580Z,14.87
2019-01-29T20:00:17.543Z,13.77
2019-01-29T20:02:45.732Z,13.93
2019-01-29T20:05:13.945Z,16.27
2019-01-29T20:07:42.127Z,12.73
2019-01-29T20:10:13.459Z,14.50
2019-01-29T20:12:41.664Z,14.67
2019-01-29T20:15:12.603Z,15.43
2019-01-29T20:17:40.793Z,14.53
2019-01-29T20:20:15.055Z,13.97
2019-01-29T20:22:43.251Z,13.13
2019-01-29T20:25:11.615Z,15.57
2019-01-29T20:27:39.816Z,21.73
2019-01-29T20:30:23.116Z,23.23
2019-01-29T20:32:53.470Z,11.47
2019-01-29T20:35:21.228Z,14.47
2019-01-29T20:37:49.413Z,16.30
2019-01-29T20:40:19.651Z,8.13
2019-01-29T20:42:47.840Z,18.17
2019-01-29T20:45:16.099Z,20.63
2019-01-29T20:47:44.299Z,15.17
2019-01-29T20:50:20.794Z,13.17
2019-01-29T20:52:49.008Z,11.13
2019-01-29T20:55:17.204Z,13.83
2019-01-29T20:57:45.383Z,18.17
2019-01-29T21:00:21.937Z,12.00
2019-01-29T21:02:50.127Z,15.60
2019-01-29T21:05:18.315Z,15.03
2019-01-29T21:07:46.511Z,17.33
2019-01-29T21:10:21.892Z,15.23
2019-01-29T21:12:50.079Z,15.37
2019-01-29T21:15:23.757Z,13.33
2019-01-29T21:17:52.335Z,17.73
2019-01-29T21:20:22.476Z,11.97
2019-01-29T21:22:50.672Z,9.27
2019-01-29T21:25:18.863Z,12.50
2019-01-29T21:27:47.061Z,15.97
2019-01-29T21:30:21.009Z,13.43
2019-01-29T21:32:49.199Z,15.27
2019-01-29T21:35:17.383Z,20.73
2019-01-29T21:37:45.584Z,15.23
2019-01-29T21:40:15.623Z,16.93
2019-01-29T21:42:43.806Z,9.77
2019-01-29T21:45:19.755Z,15.93
2019-01-29T21:47:48.867Z,18.77
2019-01-29T21:50:22.299Z,16.37
2019-01-29T21:52:50.499Z,19.60
2019-01-29T21:55:18.696Z,14.67
2019-01-29T21:57:46.885Z,17.63
2019-01-29T22:00:29.639Z,19.77
2019-01-29T22:02:57.832Z,13.43
2019-01-29T22:05:26.040Z,14.10
2019-01-29T22:07:54.235Z,17.03
2019-01-29T22:10:22.433Z,15.53
2019-01-29T22:12:50.619Z,11.73
2019-01-29T22:15:23.724Z,17.07
2019-01-29T22:17:51.911Z,14.30
2019-01-29T22:20:22.411Z,15.80
2019-01-29T22:22:50.600Z,11.70
2019-01-29T22:25:20.135Z,15.77
2019-01-29T22:27:48.320Z,10.13
2019-01-29T22:30:22.455Z,14.80
2019-01-29T22:32:50.647Z,16.17
2019-01-29T22:35:18.834Z,10.73
2019-01-29T22:37:47.032Z,12.23
2019-01-29T22:40:22.927Z,16.60
2019-01-29T22:42:51.122Z,10.87
2019-01-29T22:45:19.310Z,18.80
2019-01-29T22:47:47.500Z,13.40
2019-01-29T22:50:21.599Z,15.87
2019-01-29T22:52:49.784Z,15.13
2019-01-29T22:55:17.979Z,14.70
2019-01-29T22:57:46.175Z,17.23
2019-01-29T23:00:28.163Z,15.90
2019-01-29T23:02:56.351Z,12.63
2019-01-29T23:05:24.543Z,12.97
2019-01-29T23:07:52.740Z,13.53
2019-01-29T23:10:21.700Z,15.17
2019-01-29T23:12:49.891Z,11.97
2019-01-29T23:15:19.129Z,12.43
2019-01-29T23:17:47.329Z,15.27
2019-01-29T23:20:16.869Z,14.77
2019-01-29T23:22:45.132Z,11.10
2019-01-29T23:25:13.306Z,16.00
2019-01-29T23:27:41.839Z,18.70
2019-01-29T23:30:13.426Z,13.73
2019-01-29T23:32:41.627Z,13.07
2019-01-29T23:35:09.811Z,15.07
2019-01-29T23:37:38.015Z,13.97
2019-01-29T23:40:17.344Z,11.73
2019-01-29T23:42:45.536Z,19.40
2019-01-29T23:45:14.868Z,10.30
2019-01-29T23:47:43.062Z,13.50
2019-01-29T23:50:15.067Z,14.40
2019-01-29T23:52:43.251Z,10.00
2019-01-29T23:55:11.587Z,12.33
2019-01-29T23:57:39.767Z,9.17
